sensor_id;sensor_type;location;lat;lon;timestamp;P1;durP1;ratioP1;P2;durP2;ratioP2
79403;SDS011;68858;48.642;9.142;2024-03-02T00:00:22;14.83;;;12.03;;
79403;SDS011;68858;48.642;9.142;2024-03-02T00:02:49;13.50;;;11.80;;
79403;SDS011;68858;48.642;9.142;2024-03-02T00:05:18;14.53;;;12.50;;
79403;SDS011;68858;48.642;9.142;2024-03-02T00:07:45;14.40;;;11.73;;
79403;SDS011;68858;48.642;9.142;2024-03-02T00:10:19;15.67;;;13.10;;
79403;SDS011;68858;48.642;9.142;2024-03-02T00:12:55;13.73;;;12.13;;
79403;SDS011;68858;48.642;9.142;2024-03-02T00:17:55;13.40;;;11.97;;
79403;SDS011;68858;48.642;9.142;2024-03-02T00:20:21;13.37;;;11.33;;
79403;SDS011;68858;48.642;9.142;2024-03-02T00:22:48;13.07;;;10.70;;
79403;SDS011;68858;48.642;9.142;2024-03-02T00:25:14;12.57;;;11.23;;
79403;SDS011;68858;48.642;9.142;2024-03-02T00:27:39;12.97;;;11.50;;
79403;SDS011;68858;48.642;9.142;2024-03-02T00:30:36;14.20;;;11.83;;
79403;SDS011;68858;48.642;9.142;2024-03-02T00:33:08;12.53;;;11.03;;
79403;SDS011;68858;48.642;9.142;2024-03-02T00:35:34;11.73;;;10.13;;
79403;SDS011;68858;48.642;9.142;2024-03-02T00:38:03;13.20;;;11.50;;
79403;SDS011;68858;48.642;9.142;2024-03-02T00:40:31;11.63;;;10.43;;
79403;SDS011;68858;48.642;9.142;2024-03-02T00:42:57;13.20;;;11.77;;
79403;SDS011;68858;48.642;9.142;2024-03-02T00:45:22;13.73;;;11.43;;
79403;SDS011;68858;48.642;9.142;2024-03-02T00:47:50;12.27;;;10.97;;
79403;SDS011;68858;48.642;9.142;2024-03-02T00:50:15;13.63;;;11.50;;
79403;SDS011;68858;48.642;9.142;2024-03-02T00:52:41;15.10;;;12.53;;
79403;SDS011;68858;48.642;9.142;2024-03-02T00:55:07;13.73;;;12.27;;
79403;SDS011;68858;48.642;9.142;2024-03-02T00:57:33;14.43;;;11.30;;
79403;SDS011;68858;48.642;9.142;2024-03-02T00:59:59;12.47;;;11.17;;
79403;SDS011;68858;48.642;9.142;2024-03-02T01:02:25;13.03;;;11.10;;
79403;SDS011;68858;48.642;9.142;2024-03-02T01:04:51;11.30;;;10.10;;
79403;SDS011;68858;48.642;9.142;2024-03-02T01:07:17;13.03;;;11.03;;
79403;SDS011;68858;48.642;9.142;2024-03-02T01:09:42;12.60;;;11.23;;
79403;SDS011;68858;48.642;9.142;2024-03-02T01:12:08;13.37;;;11.67;;
79403;SDS011;68858;48.642;9.142;2024-03-02T01:14:33;12.33;;;10.83;;
79403;SDS011;68858;48.642;9.142;2024-03-02T01:17:00;12.07;;;10.73;;
79403;SDS011;68858;48.642;9.142;2024-03-02T01:19:28;11.37;;;10.27;;
79403;SDS011;68858;48.642;9.142;2024-03-02T01:21:54;12.63;;;11.33;;
79403;SDS011;68858;48.642;9.142;2024-03-02T01:24:19;15.33;;;12.83;;
79403;SDS011;68858;48.642;9.142;2024-03-02T01:26:45;15.67;;;12.03;;
79403;SDS011;68858;48.642;9.142;2024-03-02T01:29:10;18.03;;;12.57;;
79403;SDS011;68858;48.642;9.142;2024-03-02T01:31:35;13.07;;;11.57;;
79403;SDS011;68858;48.642;9.142;2024-03-02T01:34:00;15.37;;;11.90;;
79403;SDS011;68858;48.642;9.142;2024-03-02T01:36:26;17.13;;;12.93;;
79403;SDS011;68858;48.642;9.142;2024-03-02T01:38:52;13.57;;;11.57;;
79403;SDS011;68858;48.642;9.142;2024-03-02T01:41:17;16.73;;;12.57;;
79403;SDS011;68858;48.642;9.142;2024-03-02T01:43:43;15.97;;;12.47;;
79403;SDS011;68858;48.642;9.142;2024-03-02T01:46:08;13.00;;;11.60;;
79403;SDS011;68858;48.642;9.142;2024-03-02T01:48:34;13.87;;;12.20;;
79403;SDS011;68858;48.642;9.142;2024-03-02T01:50:59;14.57;;;11.97;;
79403;SDS011;68858;48.642;9.142;2024-03-02T01:53:26;13.93;;;12.43;;
79403;SDS011;68858;48.642;9.142;2024-03-02T01:55:52;16.00;;;12.57;;
79403;SDS011;68858;48.642;9.142;2024-03-02T01:58:18;18.53;;;13.53;;
79403;SDS011;68858;48.642;9.142;2024-03-02T02:00:43;16.83;;;12.83;;
79403;SDS011;68858;48.642;9.142;2024-03-02T02:03:10;15.97;;;12.90;;
79403;SDS011;68858;48.642;9.142;2024-03-02T02:05:36;16.07;;;13.20;;
79403;SDS011;68858;48.642;9.142;2024-03-02T02:08:02;13.93;;;12.47;;
79403;SDS011;68858;48.642;9.142;2024-03-02T02:10:27;16.00;;;13.33;;
79403;SDS011;68858;48.642;9.142;2024-03-02T02:12:53;13.77;;;12.27;;
79403;SDS011;68858;48.642;9.142;2024-03-02T02:15:25;17.17;;;13.57;;
79403;SDS011;68858;48.642;9.142;2024-03-02T02:17:51;17.20;;;13.63;;
79403;SDS011;68858;48.642;9.142;2024-03-02T02:20:18;15.90;;;12.00;;
79403;SDS011;68858;48.642;9.142;2024-03-02T02:23:03;16.17;;;12.93;;
79403;SDS011;68858;48.642;9.142;2024-03-02T02:25:29;14.80;;;12.70;;
79403;SDS011;68858;48.642;9.142;2024-03-02T02:27:55;15.93;;;12.87;;
79403;SDS011;68858;48.642;9.142;2024-03-02T02:30:25;15.97;;;11.90;;
79403;SDS011;68858;48.642;9.142;2024-03-02T02:32:55;17.27;;;12.43;;
79403;SDS011;68858;48.642;9.142;2024-03-02T02:35:21;16.77;;;13.37;;
79403;SDS011;68858;48.642;9.142;2024-03-02T02:37:47;16.23;;;13.07;;
79403;SDS011;68858;48.642;9.142;2024-03-02T02:40:13;19.13;;;14.90;;
79403;SDS011;68858;48.642;9.142;2024-03-02T02:42:39;17.27;;;14.20;;
79403;SDS011;68858;48.642;9.142;2024-03-02T02:45:06;17.87;;;13.33;;
79403;SDS011;68858;48.642;9.142;2024-03-02T02:47:32;20.13;;;14.17;;
79403;SDS011;68858;48.642;9.142;2024-03-02T02:50:00;18.03;;;14.00;;
79403;SDS011;68858;48.642;9.142;2024-03-02T02:52:33;20.70;;;15.40;;
79403;SDS011;68858;48.642;9.142;2024-03-02T02:55:00;21.37;;;15.97;;
79403;SDS011;68858;48.642;9.142;2024-03-02T02:57:28;23.63;;;16.47;;
79403;SDS011;68858;48.642;9.142;2024-03-02T02:59:55;24.70;;;16.80;;
79403;SDS011;68858;48.642;9.142;2024-03-02T03:02:20;23.57;;;16.57;;
79403;SDS011;68858;48.642;9.142;2024-03-02T03:04:46;21.83;;;15.93;;
79403;SDS011;68858;48.642;9.142;2024-03-02T03:07:11;24.30;;;16.00;;
79403;SDS011;68858;48.642;9.142;2024-03-02T03:09:37;19.03;;;14.57;;
79403;SDS011;68858;48.642;9.142;2024-03-02T03:12:04;18.73;;;14.57;;
79403;SDS011;68858;48.642;9.142;2024-03-02T03:14:29;19.10;;;14.60;;
79403;SDS011;68858;48.642;9.142;2024-03-02T03:16:54;19.27;;;14.00;;
79403;SDS011;68858;48.642;9.142;2024-03-02T03:19:20;17.57;;;13.77;;
79403;SDS011;68858;48.642;9.142;2024-03-02T03:21:45;19.77;;;14.60;;
79403;SDS011;68858;48.642;9.142;2024-03-02T03:24:12;16.27;;;13.10;;
79403;SDS011;68858;48.642;9.142;2024-03-02T03:26:37;18.37;;;13.90;;
79403;SDS011;68858;48.642;9.142;2024-03-02T03:29:02;19.20;;;14.63;;
79403;SDS011;68858;48.642;9.142;2024-03-02T03:31:29;25.60;;;16.57;;
79403;SDS011;68858;48.642;9.142;2024-03-02T03:33:54;24.30;;;17.97;;
79403;SDS011;68858;48.642;9.142;2024-03-02T03:36:20;24.10;;;17.13;;
79403;SDS011;68858;48.642;9.142;2024-03-02T03:38:45;27.00;;;18.13;;
79403;SDS011;68858;48.642;9.142;2024-03-02T03:41:11;25.57;;;17.67;;
79403;SDS011;68858;48.642;9.142;2024-03-02T03:43:36;23.57;;;16.73;;
79403;SDS011;68858;48.642;9.142;2024-03-02T03:46:01;22.10;;;15.17;;
79403;SDS011;68858;48.642;9.142;2024-03-02T03:48:27;21.43;;;16.10;;
79403;SDS011;68858;48.642;9.142;2024-03-02T03:50:55;22.13;;;16.57;;
79403;SDS011;68858;48.642;9.142;2024-03-02T03:53:21;26.03;;;18.33;;
79403;SDS011;68858;48.642;9.142;2024-03-02T03:55:47;26.07;;;17.10;;
79403;SDS011;68858;48.642;9.142;2024-03-02T03:58:14;26.17;;;17.30;;
79403;SDS011;68858;48.642;9.142;2024-03-02T04:00:41;27.87;;;18.30;;
79403;SDS011;68858;48.642;9.142;2024-03-02T04:03:07;24.03;;;17.17;;
79403;SDS011;68858;48.642;9.142;2024-03-02T04:05:32;23.77;;;16.03;;
79403;SDS011;68858;48.642;9.142;2024-03-02T04:07:58;21.83;;;15.10;;
79403;SDS011;68858;48.642;9.142;2024-03-02T04:10:23;17.77;;;14.17;;
79403;SDS011;68858;48.642;9.142;2024-03-02T04:12:49;19.63;;;13.50;;
79403;SDS011;68858;48.642;9.142;2024-03-02T04:15:16;21.20;;;15.00;;
79403;SDS011;68858;48.642;9.142;2024-03-02T04:17:41;20.13;;;14.20;;
79403;SDS011;68858;48.642;9.142;2024-03-02T04:20:07;18.50;;;13.50;;
79403;SDS011;68858;48.642;9.142;2024-03-02T04:22:33;20.33;;;14.47;;
79403;SDS011;68858;48.642;9.142;2024-03-02T04:24:59;24.70;;;16.87;;
79403;SDS011;68858;48.642;9.142;2024-03-02T04:27:25;22.57;;;15.90;;
79403;SDS011;68858;48.642;9.142;2024-03-02T04:29:51;26.03;;;16.97;;
79403;SDS011;68858;48.642;9.142;2024-03-02T04:32:17;22.33;;;14.73;;
79403;SDS011;68858;48.642;9.142;2024-03-02T04:34:42;20.83;;;15.10;;
79403;SDS011;68858;48.642;9.142;2024-03-02T04:37:10;21.27;;;14.00;;
79403;SDS011;68858;48.642;9.142;2024-03-02T04:39:37;19.03;;;14.10;;
79403;SDS011;68858;48.642;9.142;2024-03-02T04:42:02;20.33;;;15.13;;
79403;SDS011;68858;48.642;9.142;2024-03-02T04:44:30;21.67;;;16.00;;
79403;SDS011;68858;48.642;9.142;2024-03-02T04:46:56;20.03;;;15.17;;
79403;SDS011;68858;48.642;9.142;2024-03-02T04:49:21;19.80;;;13.57;;
79403;SDS011;68858;48.642;9.142;2024-03-02T04:51:47;18.63;;;13.10;;
79403;SDS011;68858;48.642;9.142;2024-03-02T04:54:12;17.40;;;12.83;;
79403;SDS011;68858;48.642;9.142;2024-03-02T04:56:39;18.83;;;13.60;;
79403;SDS011;68858;48.642;9.142;2024-03-02T04:59:17;20.43;;;14.67;;
79403;SDS011;68858;48.642;9.142;2024-03-02T05:01:43;22.97;;;14.23;;
79403;SDS011;68858;48.642;9.142;2024-03-02T05:04:09;21.63;;;15.57;;
79403;SDS011;68858;48.642;9.142;2024-03-02T05:06:37;22.87;;;15.83;;
79403;SDS011;68858;48.642;9.142;2024-03-02T05:09:04;20.10;;;15.17;;
79403;SDS011;68858;48.642;9.142;2024-03-02T05:11:29;19.17;;;13.97;;
79403;SDS011;68858;48.642;9.142;2024-03-02T05:14:04;19.07;;;15.07;;
79403;SDS011;68858;48.642;9.142;2024-03-02T05:16:32;20.57;;;14.83;;
79403;SDS011;68858;48.642;9.142;2024-03-02T05:18:58;18.17;;;14.13;;
79403;SDS011;68858;48.642;9.142;2024-03-02T05:21:24;20.10;;;14.47;;
79403;SDS011;68858;48.642;9.142;2024-03-02T05:23:50;20.67;;;14.30;;
79403;SDS011;68858;48.642;9.142;2024-03-02T05:26:15;22.83;;;15.60;;
79403;SDS011;68858;48.642;9.142;2024-03-02T05:28:41;21.53;;;15.57;;
79403;SDS011;68858;48.642;9.142;2024-03-02T05:31:09;20.33;;;15.23;;
79403;SDS011;68858;48.642;9.142;2024-03-02T05:33:37;20.23;;;15.10;;
79403;SDS011;68858;48.642;9.142;2024-03-02T05:36:03;20.47;;;14.80;;
79403;SDS011;68858;48.642;9.142;2024-03-02T05:38:29;20.90;;;13.97;;
79403;SDS011;68858;48.642;9.142;2024-03-02T05:40:55;19.13;;;13.67;;
79403;SDS011;68858;48.642;9.142;2024-03-02T05:43:22;18.00;;;13.60;;
79403;SDS011;68858;48.642;9.142;2024-03-02T05:45:48;16.67;;;13.20;;
79403;SDS011;68858;48.642;9.142;2024-03-02T05:48:14;18.83;;;14.23;;
79403;SDS011;68858;48.642;9.142;2024-03-02T05:50:40;18.93;;;13.87;;
79403;SDS011;68858;48.642;9.142;2024-03-02T05:53:05;16.50;;;13.27;;
79403;SDS011;68858;48.642;9.142;2024-03-02T05:55:30;20.50;;;13.97;;
79403;SDS011;68858;48.642;9.142;2024-03-02T05:57:56;19.87;;;12.60;;
79403;SDS011;68858;48.642;9.142;2024-03-02T06:00:43;20.30;;;13.03;;
79403;SDS011;68858;48.642;9.142;2024-03-02T06:03:08;21.27;;;15.23;;
79403;SDS011;68858;48.642;9.142;2024-03-02T06:05:34;22.10;;;16.57;;
79403;SDS011;68858;48.642;9.142;2024-03-02T06:08:01;23.50;;;16.70;;
79403;SDS011;68858;48.642;9.142;2024-03-02T06:10:26;30.57;;;19.33;;
79403;SDS011;68858;48.642;9.142;2024-03-02T06:12:52;32.87;;;20.50;;
79403;SDS011;68858;48.642;9.142;2024-03-02T06:15:18;33.07;;;21.03;;
79403;SDS011;68858;48.642;9.142;2024-03-02T06:17:43;38.73;;;22.00;;
79403;SDS011;68858;48.642;9.142;2024-03-02T06:20:09;33.93;;;20.63;;
79403;SDS011;68858;48.642;9.142;2024-03-02T06:22:34;29.50;;;19.53;;
79403;SDS011;68858;48.642;9.142;2024-03-02T06:25:00;22.27;;;15.30;;
79403;SDS011;68858;48.642;9.142;2024-03-02T06:27:26;19.10;;;14.07;;
79403;SDS011;68858;48.642;9.142;2024-03-02T06:29:51;17.63;;;13.37;;
79403;SDS011;68858;48.642;9.142;2024-03-02T06:32:17;17.93;;;13.60;;
79403;SDS011;68858;48.642;9.142;2024-03-02T06:34:44;19.50;;;13.97;;
79403;SDS011;68858;48.642;9.142;2024-03-02T06:37:09;20.40;;;14.23;;
79403;SDS011;68858;48.642;9.142;2024-03-02T06:39:35;19.60;;;14.23;;
79403;SDS011;68858;48.642;9.142;2024-03-02T06:42:01;21.17;;;14.37;;
79403;SDS011;68858;48.642;9.142;2024-03-02T06:47:49;21.13;;;14.20;;
79403;SDS011;68858;48.642;9.142;2024-03-02T06:53:36;19.77;;;15.33;;
79403;SDS011;68858;48.642;9.142;2024-03-02T06:59:23;18.80;;;13.47;;
79403;SDS011;68858;48.642;9.142;2024-03-02T07:05:12;16.00;;;12.77;;
79403;SDS011;68858;48.642;9.142;2024-03-02T07:14:35;16.03;;;12.20;;
79403;SDS011;68858;48.642;9.142;2024-03-02T07:48:43;14.13;;;11.90;;
79403;SDS011;68858;48.642;9.142;2024-03-02T07:53:47;12.03;;;10.73;;
79403;SDS011;68858;48.642;9.142;2024-03-02T07:56:20;10.27;;;8.67;;
79403;SDS011;68858;48.642;9.142;2024-03-02T08:01:32;9.13;;;8.23;;
79403;SDS011;68858;48.642;9.142;2024-03-02T08:04:00;9.77;;;8.03;;
79403;SDS011;68858;48.642;9.142;2024-03-02T08:06:30;9.87;;;8.73;;
79403;SDS011;68858;48.642;9.142;2024-03-02T08:09:10;9.33;;;8.37;;
79403;SDS011;68858;48.642;9.142;2024-03-02T08:20:34;13.27;;;11.87;;
79403;SDS011;68858;48.642;9.142;2024-03-02T08:23:14;11.80;;;10.70;;
79403;SDS011;68858;48.642;9.142;2024-03-02T08:25:52;11.23;;;10.13;;
79403;SDS011;68858;48.642;9.142;2024-03-02T08:28:28;17.50;;;15.70;;
79403;SDS011;68858;48.642;9.142;2024-03-02T08:30:54;28.00;;;24.57;;
79403;SDS011;68858;48.642;9.142;2024-03-02T08:33:35;45.33;;;37.07;;
79403;SDS011;68858;48.642;9.142;2024-03-02T08:36:04;8.57;;;7.77;;
79403;SDS011;68858;48.642;9.142;2024-03-02T08:38:33;9.47;;;8.57;;
79403;SDS011;68858;48.642;9.142;2024-03-02T08:41:06;8.30;;;7.50;;
79403;SDS011;68858;48.642;9.142;2024-03-02T08:43:47;6.57;;;5.97;;
79403;SDS011;68858;48.642;9.142;2024-03-02T08:46:14;6.70;;;6.10;;
79403;SDS011;68858;48.642;9.142;2024-03-02T08:51:37;6.67;;;6.07;;
79403;SDS011;68858;48.642;9.142;2024-03-02T08:54:10;6.57;;;6.07;;
79403;SDS011;68858;48.642;9.142;2024-03-02T08:56:36;6.83;;;6.23;;
79403;SDS011;68858;48.642;9.142;2024-03-02T08:59:03;7.20;;;6.50;;
79403;SDS011;68858;48.642;9.142;2024-03-02T09:01:29;7.33;;;6.73;;
79403;SDS011;68858;48.642;9.142;2024-03-02T09:03:57;6.23;;;5.63;;
79403;SDS011;68858;48.642;9.142;2024-03-02T09:09:42;6.27;;;5.70;;
79403;SDS011;68858;48.642;9.142;2024-03-02T09:12:20;6.30;;;5.80;;
79403;SDS011;68858;48.642;9.142;2024-03-02T09:18:09;6.70;;;6.10;;
79403;SDS011;68858;48.642;9.142;2024-03-02T09:20:35;7.50;;;5.80;;
79403;SDS011;68858;48.642;9.142;2024-03-02T09:23:00;6.17;;;5.57;;
79403;SDS011;68858;48.642;9.142;2024-03-02T09:25:26;6.60;;;6.00;;
79403;SDS011;68858;48.642;9.142;2024-03-02T09:27:52;6.47;;;5.87;;
79403;SDS011;68858;48.642;9.142;2024-03-02T09:30:17;6.30;;;5.70;;
79403;SDS011;68858;48.642;9.142;2024-03-02T09:32:43;6.37;;;5.87;;
79403;SDS011;68858;48.642;9.142;2024-03-02T09:35:16;5.40;;;4.90;;
79403;SDS011;68858;48.642;9.142;2024-03-02T09:37:43;4.77;;;4.37;;
79403;SDS011;68858;48.642;9.142;2024-03-02T09:40:09;5.03;;;4.63;;
79403;SDS011;68858;48.642;9.142;2024-03-02T09:42:37;4.43;;;4.03;;
79403;SDS011;68858;48.642;9.142;2024-03-02T09:45:02;4.67;;;4.07;;
79403;SDS011;68858;48.642;9.142;2024-03-02T09:47:31;3.40;;;3.20;;
79403;SDS011;68858;48.642;9.142;2024-03-02T09:50:06;3.43;;;3.13;;
79403;SDS011;68858;48.642;9.142;2024-03-02T09:52:32;3.20;;;3.00;;
79403;SDS011;68858;48.642;9.142;2024-03-02T09:54:59;3.47;;;3.17;;
79403;SDS011;68858;48.642;9.142;2024-03-02T09:57:25;3.60;;;3.30;;
79403;SDS011;68858;48.642;9.142;2024-03-02T09:59:52;3.00;;;2.80;;
79403;SDS011;68858;48.642;9.142;2024-03-02T10:02:18;3.17;;;2.87;;
79403;SDS011;68858;48.642;9.142;2024-03-02T10:04:45;3.03;;;2.83;;
79403;SDS011;68858;48.642;9.142;2024-03-02T10:07:15;2.97;;;2.77;;
79403;SDS011;68858;48.642;9.142;2024-03-02T10:09:45;2.67;;;2.47;;
79403;SDS011;68858;48.642;9.142;2024-03-02T10:12:13;2.77;;;2.57;;
79403;SDS011;68858;48.642;9.142;2024-03-02T10:14:41;2.47;;;2.27;;
79403;SDS011;68858;48.642;9.142;2024-03-02T10:17:08;2.67;;;2.20;;
79403;SDS011;68858;48.642;9.142;2024-03-02T10:19:36;2.23;;;2.03;;
79403;SDS011;68858;48.642;9.142;2024-03-02T10:22:03;2.40;;;2.20;;
79403;SDS011;68858;48.642;9.142;2024-03-02T10:24:38;2.50;;;2.30;;
79403;SDS011;68858;48.642;9.142;2024-03-02T10:27:27;2.40;;;2.00;;
79403;SDS011;68858;48.642;9.142;2024-03-02T10:29:53;2.07;;;1.87;;
79403;SDS011;68858;48.642;9.142;2024-03-02T10:32:21;1.60;;;1.50;;
79403;SDS011;68858;48.642;9.142;2024-03-02T10:34:54;1.63;;;1.53;;
79403;SDS011;68858;48.642;9.142;2024-03-02T10:39:55;2.00;;;1.80;;
79403;SDS011;68858;48.642;9.142;2024-03-02T10:42:23;1.70;;;1.60;;
79403;SDS011;68858;48.642;9.142;2024-03-02T10:44:48;2.77;;;2.30;;
79403;SDS011;68858;48.642;9.142;2024-03-02T10:47:14;2.87;;;2.40;;
79403;SDS011;68858;48.642;9.142;2024-03-02T10:49:41;1.67;;;1.57;;
79403;SDS011;68858;48.642;9.142;2024-03-02T10:52:09;1.70;;;1.60;;
79403;SDS011;68858;48.642;9.142;2024-03-02T10:54:37;1.30;;;1.20;;
79403;SDS011;68858;48.642;9.142;2024-03-02T10:57:17;1.90;;;1.40;;
79403;SDS011;68858;48.642;9.142;2024-03-02T10:59:52;2.27;;;1.80;;
79403;SDS011;68858;48.642;9.142;2024-03-02T11:02:19;1.47;;;1.37;;
79403;SDS011;68858;48.642;9.142;2024-03-02T11:04:49;1.40;;;1.30;;
79403;SDS011;68858;48.642;9.142;2024-03-02T11:07:18;1.53;;;0.90;;
79403;SDS011;68858;48.642;9.142;2024-03-02T11:13:09;1.00;;;0.90;;
79403;SDS011;68858;48.642;9.142;2024-03-02T11:18:28;1.00;;;0.87;;
79403;SDS011;68858;48.642;9.142;2024-03-02T11:20:54;0.90;;;0.90;;
79403;SDS011;68858;48.642;9.142;2024-03-02T11:23:32;2.43;;;1.10;;
79403;SDS011;68858;48.642;9.142;2024-03-02T11:28:47;0.60;;;0.60;;
79403;SDS011;68858;48.642;9.142;2024-03-02T11:31:18;0.80;;;0.80;;
79403;SDS011;68858;48.642;9.142;2024-03-02T11:33:50;1.20;;;0.70;;
79403;SDS011;68858;48.642;9.142;2024-03-02T11:36:25;1.10;;;0.90;;
79403;SDS011;68858;48.642;9.142;2024-03-02T11:38:50;0.90;;;0.90;;
79403;SDS011;68858;48.642;9.142;2024-03-02T11:41:19;0.70;;;0.70;;
79403;SDS011;68858;48.642;9.142;2024-03-02T11:43:45;1.03;;;0.93;;
79403;SDS011;68858;48.642;9.142;2024-03-02T11:46:10;1.13;;;1.10;;
79403;SDS011;68858;48.642;9.142;2024-03-02T11:48:38;1.87;;;0.97;;
79403;SDS011;68858;48.642;9.142;2024-03-02T11:51:05;0.87;;;0.87;;
79403;SDS011;68858;48.642;9.142;2024-03-02T11:53:31;1.50;;;1.40;;
79403;SDS011;68858;48.642;9.142;2024-03-02T11:55:59;1.67;;;1.30;;
79403;SDS011;68858;48.642;9.142;2024-03-02T11:58:26;2.73;;;1.80;;
79403;SDS011;68858;48.642;9.142;2024-03-02T12:00:53;1.60;;;1.50;;
79403;SDS011;68858;48.642;9.142;2024-03-02T12:03:20;2.53;;;2.10;;
79403;SDS011;68858;48.642;9.142;2024-03-02T12:05:50;1.83;;;1.70;;
79403;SDS011;68858;48.642;9.142;2024-03-02T12:08:16;1.70;;;1.60;;
79403;SDS011;68858;48.642;9.142;2024-03-02T12:10:42;2.73;;;1.67;;
79403;SDS011;68858;48.642;9.142;2024-03-02T12:13:09;1.43;;;1.33;;
79403;SDS011;68858;48.642;9.142;2024-03-02T12:15:37;1.50;;;1.40;;
79403;SDS011;68858;48.642;9.142;2024-03-02T12:18:04;1.67;;;1.57;;
79403;SDS011;68858;48.642;9.142;2024-03-02T12:20:30;1.70;;;1.60;;
79403;SDS011;68858;48.642;9.142;2024-03-02T12:22:58;1.73;;;1.63;;
79403;SDS011;68858;48.642;9.142;2024-03-02T12:25:24;2.80;;;1.97;;
79403;SDS011;68858;48.642;9.142;2024-03-02T12:27:51;1.67;;;1.50;;
79403;SDS011;68858;48.642;9.142;2024-03-02T12:30:18;1.50;;;1.40;;
79403;SDS011;68858;48.642;9.142;2024-03-02T12:32:44;2.07;;;1.60;;
79403;SDS011;68858;48.642;9.142;2024-03-02T12:35:13;1.70;;;1.60;;
79403;SDS011;68858;48.642;9.142;2024-03-02T12:37:48;1.83;;;1.73;;
79403;SDS011;68858;48.642;9.142;2024-03-02T12:40:15;1.63;;;1.40;;
79403;SDS011;68858;48.642;9.142;2024-03-02T12:42:43;1.63;;;1.50;;
79403;SDS011;68858;48.642;9.142;2024-03-02T12:45:10;1.40;;;1.30;;
79403;SDS011;68858;48.642;9.142;2024-03-02T12:47:37;1.27;;;1.17;;
79403;SDS011;68858;48.642;9.142;2024-03-02T12:50:04;1.33;;;1.23;;
79403;SDS011;68858;48.642;9.142;2024-03-02T12:52:30;1.75;;;1.40;;
79403;SDS011;68858;48.642;9.142;2024-03-02T12:54:58;1.50;;;1.40;;
79403;SDS011;68858;48.642;9.142;2024-03-02T12:57:25;1.30;;;1.20;;
79403;SDS011;68858;48.642;9.142;2024-03-02T12:59:52;1.40;;;1.30;;
79403;SDS011;68858;48.642;9.142;2024-03-02T13:02:23;1.30;;;1.20;;
79403;SDS011;68858;48.642;9.142;2024-03-02T13:04:54;1.77;;;1.20;;
79403;SDS011;68858;48.642;9.142;2024-03-02T13:07:20;1.67;;;1.20;;
79403;SDS011;68858;48.642;9.142;2024-03-02T13:09:47;1.30;;;1.20;;
79403;SDS011;68858;48.642;9.142;2024-03-02T13:12:12;1.40;;;1.20;;
79403;SDS011;68858;48.642;9.142;2024-03-02T13:14:42;1.40;;;1.30;;
79403;SDS011;68858;48.642;9.142;2024-03-02T13:17:08;1.67;;;1.40;;
79403;SDS011;68858;48.642;9.142;2024-03-02T13:19:34;1.30;;;1.20;;
79403;SDS011;68858;48.642;9.142;2024-03-02T13:21:59;1.47;;;1.37;;
79403;SDS011;68858;48.642;9.142;2024-03-02T13:24:27;1.50;;;1.40;;
79403;SDS011;68858;48.642;9.142;2024-03-02T13:26:54;1.50;;;1.40;;
79403;SDS011;68858;48.642;9.142;2024-03-02T13:29:20;1.50;;;1.40;;
79403;SDS011;68858;48.642;9.142;2024-03-02T13:31:46;1.65;;;1.27;;
79403;SDS011;68858;48.642;9.142;2024-03-02T13:34:12;1.15;;;1.02;;
79403;SDS011;68858;48.642;9.142;2024-03-02T13:36:37;1.20;;;1.10;;
79403;SDS011;68858;48.642;9.142;2024-03-02T13:39:03;1.50;;;1.20;;
79403;SDS011;68858;48.642;9.142;2024-03-02T13:41:31;1.23;;;1.03;;
79403;SDS011;68858;48.642;9.142;2024-03-02T13:43:57;1.30;;;1.20;;
79403;SDS011;68858;48.642;9.142;2024-03-02T13:46:28;1.30;;;1.20;;
79403;SDS011;68858;48.642;9.142;2024-03-02T13:48:54;1.20;;;1.10;;
79403;SDS011;68858;48.642;9.142;2024-03-02T13:51:19;1.17;;;1.03;;
79403;SDS011;68858;48.642;9.142;2024-03-02T13:53:47;1.40;;;1.30;;
79403;SDS011;68858;48.642;9.142;2024-03-02T13:56:12;3.50;;;1.53;;
79403;SDS011;68858;48.642;9.142;2024-03-02T13:58:38;1.47;;;1.07;;
79403;SDS011;68858;48.642;9.142;2024-03-02T14:01:04;1.20;;;1.10;;
79403;SDS011;68858;48.642;9.142;2024-03-02T14:03:30;1.27;;;1.10;;
79403;SDS011;68858;48.642;9.142;2024-03-02T14:05:56;1.20;;;1.00;;
79403;SDS011;68858;48.642;9.142;2024-03-02T14:08:21;0.90;;;0.90;;
79403;SDS011;68858;48.642;9.142;2024-03-02T14:10:47;1.20;;;1.10;;
79403;SDS011;68858;48.642;9.142;2024-03-02T14:13:12;1.00;;;1.00;;
79403;SDS011;68858;48.642;9.142;2024-03-02T14:15:37;1.10;;;1.00;;
79403;SDS011;68858;48.642;9.142;2024-03-02T14:18:06;0.93;;;0.93;;
79403;SDS011;68858;48.642;9.142;2024-03-02T14:20:31;1.33;;;0.90;;
79403;SDS011;68858;48.642;9.142;2024-03-02T14:22:58;1.27;;;1.13;;
79403;SDS011;68858;48.642;9.142;2024-03-02T14:25:24;1.07;;;0.97;;
79403;SDS011;68858;48.642;9.142;2024-03-02T14:27:50;1.67;;;0.90;;
79403;SDS011;68858;48.642;9.142;2024-03-02T14:30:16;0.90;;;0.90;;
79403;SDS011;68858;48.642;9.142;2024-03-02T14:32:41;1.10;;;1.00;;
79403;SDS011;68858;48.642;9.142;2024-03-02T14:35:07;0.90;;;0.90;;
79403;SDS011;68858;48.642;9.142;2024-03-02T14:37:35;1.37;;;1.00;;
79403;SDS011;68858;48.642;9.142;2024-03-02T14:40:01;0.90;;;0.90;;
79403;SDS011;68858;48.642;9.142;2024-03-02T14:42:27;1.00;;;0.87;;
79403;SDS011;68858;48.642;9.142;2024-03-02T14:44:56;1.03;;;0.90;;
79403;SDS011;68858;48.642;9.142;2024-03-02T14:47:22;1.00;;;0.90;;
79403;SDS011;68858;48.642;9.142;2024-03-02T14:49:48;1.07;;;0.83;;
79403;SDS011;68858;48.642;9.142;2024-03-02T14:52:13;2.37;;;2.17;;
79403;SDS011;68858;48.642;9.142;2024-03-02T14:54:39;0.80;;;0.80;;
79403;SDS011;68858;48.642;9.142;2024-03-02T14:57:06;0.80;;;0.80;;
79403;SDS011;68858;48.642;9.142;2024-03-02T14:59:31;1.33;;;0.87;;
79403;SDS011;68858;48.642;9.142;2024-03-02T15:01:58;1.07;;;1.00;;
79403;SDS011;68858;48.642;9.142;2024-03-02T15:04:23;1.77;;;1.13;;
79403;SDS011;68858;48.642;9.142;2024-03-02T15:06:49;1.37;;;0.80;;
79403;SDS011;68858;48.642;9.142;2024-03-02T15:09:14;0.87;;;0.80;;
79403;SDS011;68858;48.642;9.142;2024-03-02T15:11:43;0.97;;;0.77;;
79403;SDS011;68858;48.642;9.142;2024-03-02T15:14:09;0.70;;;0.70;;
79403;SDS011;68858;48.642;9.142;2024-03-02T15:16:35;1.53;;;0.80;;
79403;SDS011;68858;48.642;9.142;2024-03-02T15:19:00;0.97;;;0.77;;
79403;SDS011;68858;48.642;9.142;2024-03-02T15:21:25;0.70;;;0.70;;
79403;SDS011;68858;48.642;9.142;2024-03-02T15:23:51;0.97;;;0.90;;
79403;SDS011;68858;48.642;9.142;2024-03-02T15:26:16;0.80;;;0.80;;
79403;SDS011;68858;48.642;9.142;2024-03-02T15:28:42;0.80;;;0.80;;
79403;SDS011;68858;48.642;9.142;2024-03-02T15:31:08;0.70;;;0.70;;
79403;SDS011;68858;48.642;9.142;2024-03-02T15:33:33;1.33;;;1.00;;
79403;SDS011;68858;48.642;9.142;2024-03-02T15:35:59;0.97;;;0.90;;
79403;SDS011;68858;48.642;9.142;2024-03-02T15:38:26;0.80;;;0.80;;
79403;SDS011;68858;48.642;9.142;2024-03-02T15:40:51;1.47;;;1.00;;
79403;SDS011;68858;48.642;9.142;2024-03-02T15:43:17;0.70;;;0.70;;
79403;SDS011;68858;48.642;9.142;2024-03-02T15:45:42;0.77;;;0.77;;
79403;SDS011;68858;48.642;9.142;2024-03-02T15:48:07;1.13;;;0.90;;
79403;SDS011;68858;48.642;9.142;2024-03-02T15:50:33;1.17;;;0.70;;
79403;SDS011;68858;48.642;9.142;2024-03-02T15:53:01;0.80;;;0.80;;
79403;SDS011;68858;48.642;9.142;2024-03-02T15:55:29;0.70;;;0.70;;
79403;SDS011;68858;48.642;9.142;2024-03-02T15:57:55;1.10;;;1.00;;
79403;SDS011;68858;48.642;9.142;2024-03-02T16:00:20;0.87;;;0.67;;
79403;SDS011;68858;48.642;9.142;2024-03-02T16:02:46;0.70;;;0.70;;
79403;SDS011;68858;48.642;9.142;2024-03-02T16:05:12;1.60;;;1.00;;